sensor_id;sensor_type;location;lat;lon;timestamp;P1;durP1;ratioP1;P2;durP2;ratioP2
41099;SDS011;26844;53.686;-6.346;2022-07-01T09:56:16;6.60;;;1.60;;
41099;SDS011;26844;53.686;-6.346;2022-07-01T09:58:44;3.03;;;1.02;;
41099;SDS011;26844;53.686;-6.346;2022-07-01T10:01:10;5.15;;;1.67;;
41099;SDS011;26844;53.686;-6.346;2022-07-01T10:03:36;1.38;;;0.93;;
41099;SDS011;26844;53.686;-6.346;2022-07-01T10:08:37;2.03;;;1.00;;
41099;SDS011;26844;53.686;-6.346;2022-07-01T10:13:41;2.58;;;1.05;;
41099;SDS011;26844;53.686;-6.346;2022-07-01T10:16:07;1.98;;;0.88;;
41099;SDS011;26844;53.686;-6.346;2022-07-01T10:18:33;4.35;;;1.58;;
41099;SDS011;26844;53.686;-6.346;2022-07-01T10:20:58;2.85;;;1.23;;
41099;SDS011;26844;53.686;-6.346;2022-07-01T10:23:27;2.92;;;1.00;;
41099;SDS011;26844;53.686;-6.346;2022-07-01T10:25:53;4.22;;;1.33;;
41099;SDS011;26844;53.686;-6.346;2022-07-01T10:28:23;5.15;;;1.33;;
41099;SDS011;26844;53.686;-6.346;2022-07-01T10:33:26;7.18;;;1.70;;
41099;SDS011;26844;53.686;-6.346;2022-07-01T10:35:52;2.60;;;1.30;;
41099;SDS011;26844;53.686;-6.346;2022-07-01T10:38:17;4.10;;;1.40;;
41099;SDS011;26844;53.686;-6.346;2022-07-01T10:40:43;4.03;;;1.38;;
41099;SDS011;26844;53.686;-6.346;2022-07-01T10:43:17;1.35;;;1.20;;
41099;SDS011;26844;53.686;-6.346;2022-07-01T10:45:43;2.28;;;1.55;;
41099;SDS011;26844;53.686;-6.346;2022-07-01T10:48:19;2.28;;;1.27;;
41099;SDS011;26844;53.686;-6.346;2022-07-01T10:50:47;4.40;;;1.80;;
41099;SDS011;26844;53.686;-6.346;2022-07-01T10:53:14;2.92;;;1.70;;
41099;SDS011;26844;53.686;-6.346;2022-07-01T10:55:52;1.85;;;1.25;;
41099;SDS011;26844;53.686;-6.346;2022-07-01T10:58:18;3.45;;;1.73;;
41099;SDS011;26844;53.686;-6.346;2022-07-01T11:00:46;1.95;;;1.48;;
41099;SDS011;26844;53.686;-6.346;2022-07-01T11:03:14;3.28;;;1.63;;
41099;SDS011;26844;53.686;-6.346;2022-07-01T11:05:40;3.35;;;1.40;;
41099;SDS011;26844;53.686;-6.346;2022-07-01T11:08:06;2.08;;;1.40;;
41099;SDS011;26844;53.686;-6.346;2022-07-01T11:10:32;3.45;;;1.60;;
41099;SDS011;26844;53.686;-6.346;2022-07-01T11:12:59;5.35;;;1.42;;
41099;SDS011;26844;53.686;-6.346;2022-07-01T11:15:25;3.20;;;1.35;;
41099;SDS011;26844;53.686;-6.346;2022-07-01T11:17:51;7.03;;;1.60;;
41099;SDS011;26844;53.686;-6.346;2022-07-01T11:20:16;6.55;;;1.23;;
41099;SDS011;26844;53.686;-6.346;2022-07-01T11:22:42;9.18;;;2.90;;
41099;SDS011;26844;53.686;-6.346;2022-07-01T11:25:08;4.13;;;1.30;;
41099;SDS011;26844;53.686;-6.346;2022-07-01T11:27:34;7.25;;;1.08;;
41099;SDS011;26844;53.686;-6.346;2022-07-01T11:30:10;3.03;;;1.20;;
41099;SDS011;26844;53.686;-6.346;2022-07-01T11:32:44;8.93;;;1.52;;
41099;SDS011;26844;53.686;-6.346;2022-07-01T11:35:14;3.35;;;1.08;;
41099;SDS011;26844;53.686;-6.346;2022-07-01T11:41:10;2.05;;;0.90;;
41099;SDS011;26844;53.686;-6.346;2022-07-01T11:43:39;2.15;;;0.90;;
41099;SDS011;26844;53.686;-6.346;2022-07-01T11:46:07;3.10;;;0.75;;
41099;SDS011;26844;53.686;-6.346;2022-07-01T11:51:04;1.92;;;1.02;;
41099;SDS011;26844;53.686;-6.346;2022-07-01T11:53:30;1.90;;;0.80;;
41099;SDS011;26844;53.686;-6.346;2022-07-01T11:55:56;3.20;;;0.70;;
41099;SDS011;26844;53.686;-6.346;2022-07-01T11:58:21;2.38;;;0.77;;
41099;SDS011;26844;53.686;-6.346;2022-07-01T12:03:28;2.75;;;0.73;;
41099;SDS011;26844;53.686;-6.346;2022-07-01T12:05:53;3.88;;;1.05;;
41099;SDS011;26844;53.686;-6.346;2022-07-01T12:08:18;1.73;;;0.80;;
41099;SDS011;26844;53.686;-6.346;2022-07-01T12:10:44;2.20;;;1.20;;
41099;SDS011;26844;53.686;-6.346;2022-07-01T12:15:37;1.80;;;0.73;;
41099;SDS011;26844;53.686;-6.346;2022-07-01T12:18:05;4.80;;;1.20;;
41099;SDS011;26844;53.686;-6.346;2022-07-01T12:20:31;6.35;;;0.82;;
41099;SDS011;26844;53.686;-6.346;2022-07-01T12:23:15;1.42;;;0.70;;
41099;SDS011;26844;53.686;-6.346;2022-07-01T12:25:40;2.50;;;0.80;;
41099;SDS011;26844;53.686;-6.346;2022-07-01T12:28:23;5.28;;;1.25;;
41099;SDS011;26844;53.686;-6.346;2022-07-01T12:30:48;3.22;;;0.70;;
41099;SDS011;26844;53.686;-6.346;2022-07-01T12:33:14;4.00;;;0.70;;
41099;SDS011;26844;53.686;-6.346;2022-07-01T12:35:44;1.35;;;0.70;;
41099;SDS011;26844;53.686;-6.346;2022-07-01T12:38:16;1.27;;;0.65;;
41099;SDS011;26844;53.686;-6.346;2022-07-01T12:40:44;2.72;;;0.68;;
41099;SDS011;26844;53.686;-6.346;2022-07-01T12:43:23;2.38;;;0.65;;
41099;SDS011;26844;53.686;-6.346;2022-07-01T12:45:48;2.40;;;0.70;;
41099;SDS011;26844;53.686;-6.346;2022-07-01T12:48:14;1.50;;;0.70;;
41099;SDS011;26844;53.686;-6.346;2022-07-01T12:50:39;2.70;;;0.65;;
41099;SDS011;26844;53.686;-6.346;2022-07-01T12:53:06;6.57;;;0.82;;
41099;SDS011;26844;53.686;-6.346;2022-07-01T12:55:38;0.98;;;0.30;;
41099;SDS011;26844;53.686;-6.346;2022-07-01T12:58:08;0.60;;;0.40;;
41099;SDS011;26844;53.686;-6.346;2022-07-01T13:00:34;1.50;;;0.47;;
41099;SDS011;26844;53.686;-6.346;2022-07-01T13:03:00;2.22;;;0.50;;
41099;SDS011;26844;53.686;-6.346;2022-07-01T13:05:26;1.73;;;0.50;;
41099;SDS011;26844;53.686;-6.346;2022-07-01T13:07:54;0.60;;;0.30;;
41099;SDS011;26844;53.686;-6.346;2022-07-01T13:10:19;2.92;;;0.93;;
41099;SDS011;26844;53.686;-6.346;2022-07-01T13:12:48;0.70;;;0.30;;
41099;SDS011;26844;53.686;-6.346;2022-07-01T13:15:13;1.60;;;0.38;;
41099;SDS011;26844;53.686;-6.346;2022-07-01T13:17:39;0.75;;;0.30;;
41099;SDS011;26844;53.686;-6.346;2022-07-01T13:20:05;0.63;;;0.30;;
41099;SDS011;26844;53.686;-6.346;2022-07-01T13:22:30;1.20;;;0.50;;
41099;SDS011;26844;53.686;-6.346;2022-07-01T13:24:56;0.82;;;0.30;;
41099;SDS011;26844;53.686;-6.346;2022-07-01T13:27:21;1.05;;;0.40;;
41099;SDS011;26844;53.686;-6.346;2022-07-01T13:29:49;0.50;;;0.40;;
41099;SDS011;26844;53.686;-6.346;2022-07-01T13:32:15;1.50;;;0.40;;
41099;SDS011;26844;53.686;-6.346;2022-07-01T13:34:58;2.55;;;0.50;;
41099;SDS011;26844;53.686;-6.346;2022-07-01T13:53:18;3.75;;;0.82;;
41099;SDS011;26844;53.686;-6.346;2022-07-01T13:55:43;2.63;;;1.05;;
41099;SDS011;26844;53.686;-6.346;2022-07-01T13:58:09;4.35;;;1.02;;
41099;SDS011;26844;53.686;-6.346;2022-07-01T14:00:34;3.70;;;1.05;;
41099;SDS011;26844;53.686;-6.346;2022-07-01T14:03:00;3.15;;;0.90;;
41099;SDS011;26844;53.686;-6.346;2022-07-01T14:05:25;2.90;;;1.02;;
41099;SDS011;26844;53.686;-6.346;2022-07-01T14:07:50;2.78;;;0.80;;
41099;SDS011;26844;53.686;-6.346;2022-07-01T14:10:16;4.50;;;0.98;;
41099;SDS011;26844;53.686;-6.346;2022-07-01T14:12:42;4.32;;;0.75;;
41099;SDS011;26844;53.686;-6.346;2022-07-01T14:15:07;3.20;;;0.90;;
41099;SDS011;26844;53.686;-6.346;2022-07-01T14:20:10;4.32;;;0.95;;
41099;SDS011;26844;53.686;-6.346;2022-07-01T14:22:52;3.30;;;0.88;;
41099;SDS011;26844;53.686;-6.346;2022-07-01T14:25:27;3.08;;;0.88;;
41099;SDS011;26844;53.686;-6.346;2022-07-01T14:27:52;1.70;;;1.02;;
41099;SDS011;26844;53.686;-6.346;2022-07-01T14:30:30;3.35;;;1.23;;
41099;SDS011;26844;53.686;-6.346;2022-07-01T14:33:01;6.25;;;1.13;;
41099;SDS011;26844;53.686;-6.346;2022-07-01T14:35:43;3.85;;;1.10;;
41099;SDS011;26844;53.686;-6.346;2022-07-01T14:41:10;7.72;;;1.10;;
41099;SDS011;26844;53.686;-6.346;2022-07-01T14:43:36;4.07;;;0.80;;
41099;SDS011;26844;53.686;-6.346;2022-07-01T15:11:39;1.00;;;0.50;;
41099;SDS011;26844;53.686;-6.346;2022-07-01T15:14:05;3.05;;;0.40;;
41099;SDS011;26844;53.686;-6.346;2022-07-01T15:16:31;0.45;;;0.35;;
41099;SDS011;26844;53.686;-6.346;2022-07-01T15:18:56;2.53;;;0.50;;
41099;SDS011;26844;53.686;-6.346;2022-07-01T15:21:23;0.30;;;0.30;;
41099;SDS011;26844;53.686;-6.346;2022-07-01T15:23:50;2.78;;;0.60;;
41099;SDS011;26844;53.686;-6.346;2022-07-01T15:26:16;1.73;;;0.43;;
41099;SDS011;26844;53.686;-6.346;2022-07-01T15:28:41;1.55;;;0.40;;
41099;SDS011;26844;53.686;-6.346;2022-07-01T15:31:07;1.98;;;0.50;;
41099;SDS011;26844;53.686;-6.346;2022-07-01T15:33:33;0.30;;;0.20;;
41099;SDS011;26844;53.686;-6.346;2022-07-01T15:36:00;2.00;;;0.30;;
41099;SDS011;26844;53.686;-6.346;2022-07-01T15:41:37;1.77;;;0.22;;
41099;SDS011;26844;53.686;-6.346;2022-07-01T15:47:18;1.08;;;0.35;;
